Airfield :
LOGIN :

Register | Disclaimer

   EN    FR    IT 

 










Legend :    VFR   Marginal VFR   IFR   Intensive IFR   Very Intensive IFR
Visi :
Ceiling :
>= 8 km
>= 3000ft
5 to 8 km
1000 to 3000 ft
1500m to 5 km
500 to 1000 ft
800 to 1500m
200 to 500 ft
< 800m
< 200 ft
Symbols :   Thunderstorms  Fog  Heavy snow  Heavy precipitations  Wind > 20 kt
SIGMETs :     Misc.  Thunderstorms  Icing  Turbulence  Mountain Waves  Volcanic Ashes






- Airport Elevation : 39 ft
- IATA code : SUF


LICA - Lamezia Terme

CURRENT METAR :
  • 181350Z AUTO 26011KT 9999 OVC029/// 22/17 Q1017

EXPIRED METARs :
  • 181320Z AUTO 26010KT 9999 OVC029/// 22/17 Q1018
  • 181250Z AUTO 24010KT 210V270 9999 FEW015/// OVC028/// 22/17 Q1018
  • 181220Z AUTO 24010KT 9999 OVC028/// 22/17 Q1018
  • 181150Z AUTO 25011KT 9999 FEW014/// OVC028/// 22/17 Q1018
  • 181120Z AUTO 24010KT 9999 FEW014/// OVC028/// 21/17 Q1018

TAF TAF LICA
Valid from the 18 at 12:00 until the 19 at 12:00 UTC


181100Z 1812/1912 27013KT 9999 BKN030
PROB40
TEMPO 1812/1816 SHRA
BECMG 1817/1819 VRB05KT
TEMPO 1821/1905 3000 BR
BECMG 1908/1910 27010KT
BECMG 1910/1912 09015KT



MET'MAP, your aeronautical weather chart ! - Copyright ORBIFLY December 2007 - Disclaimer

ORBIFLY MET'MAP TEAM :

Programming & Development : Alexandra Zaïnal
Original concept : Baudouin d'Aumeries
Technical & hardware support : Manuel Goepfert
Assistance : Marc-Olivier Méhu

Contact : metmap@orbifly.com




SOURCES & CREDITS :

   NOAA